UNEE/KEJ METAR and TAF weather

Enter ICAO airport designator
Station Type Date Time Source
UNEE METAR 2019/10/10 11:00 UTC NOAA

UNEE 101100Z 03005MPS //// NSC 07/M05 Q1024 R23/CLRD60 NOSIG RMK QFE745


Station Type Date Time Source
UNEE Decoded METAR 2019/10/10 11:00 UTC NOAA

Kemerovo, Russia (UNEE) 55-19-48N 086-04-48E
Oct 10, 2019 - 07:00 AM EDT / 2019.10.10 1100 UTC
Wind: from the NNE (030 degrees) at 11 MPH (10 KT):0
Temperature: 44 F (7 C)
Dew Point: 23 F (-5 C)
Relative Humidity: 42%
Pressure (altimeter): 30.24 in. Hg (1024 hPa)
ob: UNEE 101100Z 03005MPS //// NSC 07/M05 Q1024 R23/CLRD60 NOSIG RMK QFE745
cycle: 11

Station Type Date Time Source
UNEE TAF 2019/10/15 09:24 UTC NOAA

TAF UNEE 150800Z 1509/1609 18005G10MPS 9999 SCT020CB
TEMPO 1509/1513 22010G17MPS 4000 -SHRA BKN013CB
TEMPO 1513/1603 24003G08MPS 3100 -SHRA BR BKN011CB
TEMPO 1603/1609 4000 -SHRA BKN012CB

Example: see airport list